Time;durP1;ratioP1;P1;durP2;ratioP2;P2;SDS_P1;SDS_P2;PMS_P1;PMS_P2;Temp;Humidity;BMP_temperature;BMP_pressure;BME280_temperature;BME280_humidity;BME280_pressure;Samples;Min_cycle;Max_cycle;Signal;HPM_P1;HPM_P2
2021/07/12 00:00:26;;;;;;;1.83;1.73;;;15.30;99.90;;;;;;4994619;28;20967;-82
2021/07/12 00:02:54;;;;;;;3.87;2.00;;;15.30;99.90;;;;;;4994129;28;20496;-81
2021/07/12 00:05:22;;;;;;;2.93;2.43;;;15.30;99.90;;;;;;4995138;28;20456;-85
2021/07/12 00:07:50;;;;;;;1.90;1.80;;;15.30;99.90;;;;;;4994687;28;20955;-78
2021/07/12 00:10:20;;;;;;;2.50;1.90;;;15.30;99.90;;;;;;4994718;28;20456;-79
2021/07/12 00:12:48;;;;;;;2.13;1.97;;;15.30;99.90;;;;;;4994687;28;20832;-78
2021/07/12 00:15:17;;;;;;;2.00;1.90;;;15.20;99.90;;;;;;4994340;28;20798;-79
2021/07/12 00:17:44;;;;;;;2.40;1.83;;;15.20;99.90;;;;;;4994216;28;20932;-79
2021/07/12 00:20:13;;;;;;;2.10;2.00;;;15.20;99.90;;;;;;4994572;28;20459;-78
2021/07/12 00:22:41;;;;;;;3.03;2.03;;;15.20;99.90;;;;;;4994219;28;20832;-78
2021/07/12 00:25:11;;;;;;;1.93;1.83;;;15.20;99.90;;;;;;4994218;28;20445;-79
2021/07/12 00:27:39;;;;;;;2.00;1.90;;;15.20;99.90;;;;;;4994147;28;20444;-78
2021/07/12 00:30:08;;;;;;;2.27;2.10;;;15.30;99.90;;;;;;4994415;28;20460;-79
2021/07/12 00:32:35;;;;;;;2.27;2.10;;;15.30;99.90;;;;;;4994346;28;20452;-79
2021/07/12 00:35:02;;;;;;;1.80;1.60;;;15.20;99.90;;;;;;4994349;28;20460;-81
2021/07/12 00:37:28;;;;;;;2.00;1.90;;;15.20;99.90;;;;;;4994125;28;20453;-81
2021/07/12 00:39:55;;;;;;;2.37;2.10;;;15.20;99.90;;;;;;4993909;28;20469;-81
2021/07/12 00:42:23;;;;;;;2.30;2.10;;;15.10;99.90;;;;;;4994214;28;20456;-81
2021/07/12 00:44:50;;;;;;;2.27;2.10;;;15.10;99.90;;;;;;4994121;28;20519;-81
2021/07/12 00:47:17;;;;;;;1.70;1.60;;;15.10;99.90;;;;;;4994182;28;20448;-81
2021/07/12 00:49:44;;;;;;;2.47;2.37;;;15.10;99.90;;;;;;4994020;28;20479;-81
2021/07/12 00:52:11;;;;;;;2.40;2.30;;;15.00;99.90;;;;;;4994040;28;20448;-81
2021/07/12 00:54:38;;;;;;;2.63;2.43;;;15.10;99.90;;;;;;4993717;28;20441;-85
2021/07/12 00:57:07;;;;;;;2.13;2.00;;;15.00;99.90;;;;;;4994347;28;20463;-86
2021/07/12 00:59:35;;;;;;;2.13;2.03;;;15.00;99.90;;;;;;4994028;28;20467;-83
2021/07/12 01:02:03;;;;;;;2.00;1.90;;;15.00;99.90;;;;;;4993606;28;20480;-82
2021/07/12 01:04:29;;;;;;;2.67;2.43;;;15.00;99.90;;;;;;4993832;28;20484;-81
2021/07/12 01:06:56;;;;;;;4.10;2.40;;;15.00;99.90;;;;;;4993944;28;20453;-81
2021/07/12 01:09:23;;;;;;;2.60;2.50;;;15.00;99.90;;;;;;4993826;28;20468;-81
2021/07/12 01:11:58;;;;;;;2.47;2.27;;;15.00;99.90;;;;;;4993583;28;20982;-81
2021/07/12 01:14:39;;;;;;;2.83;2.43;;;15.00;99.90;;;;;;4993585;28;20925;-81
2021/07/12 01:17:14;;;;;;;2.20;2.10;;;14.90;99.90;;;;;;4993889;28;20437;-81
2021/07/12 01:20:07;;;;;;;2.53;2.33;;;14.90;99.90;;;;;;4993850;28;20456;-81
2021/07/12 01:22:52;;;;;;;1.87;1.77;;;14.90;99.90;;;;;;4993917;28;20532;-81
2021/07/12 01:25:54;;;;;;;2.70;2.50;;;14.80;99.90;;;;;;4993544;28;20460;-81
2021/07/12 01:28:51;;;;;;;2.07;1.97;;;14.70;99.90;;;;;;4993461;28;20991;-81
2021/07/12 01:31:55;;;;;;;2.50;2.40;;;14.80;99.90;;;;;;4992006;28;20472;-82
2021/07/12 01:34:33;;;;;;;5.40;2.07;;;14.80;99.90;;;;;;4981566;28;20451;-81
2021/07/12 01:37:05;;;;;;;2.60;2.40;;;14.80;99.90;;;;;;4993700;28;20443;-78
2021/07/12 01:39:40;;;;;;;3.03;2.67;;;14.90;99.90;;;;;;4993606;28;20472;-79
2021/07/12 01:42:09;;;;;;;2.30;2.17;;;14.90;99.90;;;;;;4993698;28;20439;-78
2021/07/12 01:44:44;;;;;;;3.90;2.23;;;14.80;99.90;;;;;;4993348;28;20480;-85
2021/07/12 01:47:15;;;;;;;2.70;2.50;;;14.80;99.90;;;;;;4993602;28;20413;-85
2021/07/12 01:49:50;;;;;;;2.60;2.37;;;14.80;99.90;;;;;;4997154;28;20494;-82
2021/07/12 01:52:26;;;;;;;2.50;2.20;;;14.70;99.90;;;;;;4997372;28;20447;-82
2021/07/12 01:55:00;;;;;;;3.10;2.90;;;14.70;99.90;;;;;;4997010;28;20912;-82
2021/07/12 01:57:30;;;;;;;3.57;2.73;;;14.70;99.90;;;;;;4997324;28;20436;-82
2021/07/12 02:00:02;;;;;;;2.63;2.43;;;14.80;99.90;;;;;;4997004;28;20468;-78
2021/07/12 02:02:31;;;;;;;3.17;2.87;;;14.80;99.90;;;;;;4996709;28;20488;-79
2021/07/12 02:05:05;;;;;;;2.53;2.37;;;14.80;99.90;;;;;;4997014;28;20488;-79
2021/07/12 02:07:34;;;;;;;2.40;2.23;;;14.80;99.90;;;;;;4997154;28;20436;-79
2021/07/12 02:10:02;;;;;;;2.00;1.90;;;14.80;99.90;;;;;;4996711;28;20460;-79
2021/07/12 02:12:32;;;;;;;2.40;2.30;;;14.80;99.90;;;;;;4996729;28;20443;-82
2021/07/12 02:15:01;;;;;;;2.70;2.50;;;14.80;99.90;;;;;;4996937;28;20448;-82
2021/07/12 02:17:29;;;;;;;2.23;2.13;;;14.80;99.90;;;;;;4996885;28;20456;-82
2021/07/12 02:19:59;;;;;;;2.53;2.40;;;14.80;99.90;;;;;;4996557;28;20816;-82
2021/07/12 02:22:28;;;;;;;2.00;1.90;;;14.80;99.90;;;;;;4996542;28;20947;-82
2021/07/12 02:24:57;;;;;;;2.50;2.40;;;14.80;99.90;;;;;;4996389;28;20491;-82
2021/07/12 02:27:25;;;;;;;2.60;2.40;;;14.70;99.90;;;;;;4996751;28;20452;-82
2021/07/12 02:29:52;;;;;;;2.37;2.20;;;14.80;99.90;;;;;;4996283;28;21002;-82
2021/07/12 02:32:20;;;;;;;2.13;2.03;;;14.70;99.90;;;;;;4996738;28;20462;-82
2021/07/12 02:34:48;;;;;;;2.07;1.97;;;14.70;99.90;;;;;;4996556;28;20457;-82
2021/07/12 02:37:16;;;;;;;2.27;2.10;;;14.70;99.90;;;;;;4996273;28;20437;-82
2021/07/12 02:39:46;;;;;;;2.20;2.10;;;14.60;99.90;;;;;;4996906;28;20839;-82
2021/07/12 02:42:14;;;;;;;3.20;2.90;;;14.60;99.90;;;;;;4996704;28;20495;-82
2021/07/12 02:44:46;;;;;;;2.77;2.57;;;14.60;99.90;;;;;;4996359;28;20484;-85
2021/07/12 02:47:13;;;;;;;2.63;2.10;;;14.50;99.90;;;;;;4996143;28;20452;-85
2021/07/12 02:49:42;;;;;;;2.27;2.10;;;14.50;99.90;;;;;;4996274;28;20830;-85
2021/07/12 02:52:18;;;;;;;2.80;2.60;;;14.50;99.90;;;;;;4996198;28;20455;-81
2021/07/12 02:54:48;;;;;;;2.10;2.00;;;14.40;99.90;;;;;;4995886;28;20432;-81
2021/07/12 02:57:15;;;;;;;2.20;2.03;;;14.40;99.90;;;;;;4996098;28;20441;-81
2021/07/12 02:59:42;;;;;;;2.20;2.10;;;14.40;99.90;;;;;;4995962;28;20540;-81
2021/07/12 03:02:09;;;;;;;2.63;2.40;;;14.30;99.90;;;;;;4995667;28;20496;-79
2021/07/12 03:04:36;;;;;;;2.37;2.27;;;14.30;99.90;;;;;;4995571;28;21034;-79
2021/07/12 03:07:11;;;;;;;2.03;1.93;;;14.30;99.90;;;;;;4995931;28;20452;-79
2021/07/12 03:09:42;;;;;;;2.57;2.37;;;14.30;99.90;;;;;;4995880;28;20464;-79
2021/07/12 03:12:17;;;;;;;3.53;1.90;;;14.20;99.90;;;;;;4995914;28;20439;-81
2021/07/12 03:14:48;;;;;;;2.40;2.20;;;14.20;99.90;;;;;;4995854;28;20443;-81
2021/07/12 03:17:16;;;;;;;3.03;2.83;;;14.20;99.90;;;;;;4995518;28;20437;-81
2021/07/12 03:19:46;;;;;;;2.40;2.30;;;14.10;99.90;;;;;;4995647;28;20485;-81
2021/07/12 03:22:31;;;;;;;2.73;2.47;;;14.10;99.90;;;;;;4995465;28;20417;-81
2021/07/12 03:24:59;;;;;;;2.70;2.47;;;14.10;99.90;;;;;;4995341;28;20469;-81
2021/07/12 03:27:27;;;;;;;2.73;2.53;;;14.10;99.90;;;;;;4995573;28;20448;-83
2021/07/12 03:29:55;;;;;;;3.37;3.07;;;14.10;99.90;;;;;;4995555;28;20464;-82
2021/07/12 03:32:24;;;;;;;2.63;2.20;;;14.10;99.90;;;;;;4995271;28;20445;-82
2021/07/12 03:34:52;;;;;;;2.50;2.30;;;14.10;99.90;;;;;;4995418;28;20456;-82
2021/07/12 03:37:21;;;;;;;3.00;2.77;;;14.10;99.90;;;;;;4995421;28;20455;-82
2021/07/12 03:39:49;;;;;;;3.90;2.93;;;14.00;99.90;;;;;;4995360;28;20468;-82
2021/07/12 03:42:18;;;;;;;4.50;3.33;;;14.00;99.90;;;;;;4995291;28;20452;-82
2021/07/12 03:44:47;;;;;;;3.53;3.23;;;14.10;99.90;;;;;;4995192;28;20480;-82
2021/07/12 03:47:25;;;;;;;3.00;2.80;;;14.00;99.90;;;;;;4995209;28;20453;-82
2021/07/12 03:49:51;;;;;;;3.33;3.03;;;14.10;99.90;;;;;;4994924;28;20456;-82
2021/07/12 03:52:20;;;;;;;2.80;2.60;;;14.10;99.90;;;;;;4994885;28;20481;-82
2021/07/12 03:54:47;;;;;;;2.50;2.30;;;14.00;99.90;;;;;;4995104;28;20448;-82
2021/07/12 03:57:13;;;;;;;3.37;2.50;;;14.10;99.90;;;;;;4995054;28;20436;-82
2021/07/12 03:59:40;;;;;;;2.40;2.20;;;14.10;99.90;;;;;;4994940;28;20464;-81
2021/07/12 04:02:08;;;;;;;2.47;2.37;;;14.10;99.90;;;;;;4994599;28;20522;-85
2021/07/12 04:04:35;;;;;;;2.50;2.30;;;14.10;99.90;;;;;;4994900;28;20492;-82
2021/07/12 04:07:02;;;;;;;2.10;1.93;;;14.10;99.90;;;;;;4994573;28;20804;-81
2021/07/12 04:09:28;;;;;;;3.53;2.53;;;14.20;99.90;;;;;;4994752;28;20480;-81
2021/07/12 04:11:56;;;;;;;2.60;2.40;;;14.20;99.90;;;;;;4994309;28;20444;-81
2021/07/12 04:14:23;;;;;;;2.40;2.10;;;14.20;99.90;;;;;;4994700;28;20444;-81
2021/07/12 04:16:50;;;;;;;2.93;2.73;;;14.20;99.90;;;;;;4994617;28;20449;-81
2021/07/12 04:19:18;;;;;;;2.40;2.30;;;14.30;99.90;;;;;;4994254;28;20998;-82
2021/07/12 04:21:45;;;;;;;3.67;3.40;;;14.30;99.90;;;;;;4994637;28;20459;-85
2021/07/12 04:24:11;;;;;;;2.90;2.70;;;14.30;99.90;;;;;;4994223;28;20493;-85
2021/07/12 04:26:38;;;;;;;3.37;3.10;;;14.30;99.90;;;;;;4994645;28;20464;-85
2021/07/12 04:29:06;;;;;;;3.20;2.90;;;14.40;99.90;;;;;;4994149;28;21007;-81
2021/07/12 04:31:34;;;;;;;6.30;3.30;;;14.40;99.90;;;;;;4994097;28;20972;-81
2021/07/12 04:34:00;;;;;;;2.83;2.63;;;14.40;99.90;;;;;;4994326;28;20499;-81
2021/07/12 04:36:29;;;;;;;3.03;2.57;;;14.50;99.90;;;;;;4994324;28;20444;-81
2021/07/12 04:38:56;;;;;;;2.80;2.60;;;14.50;99.90;;;;;;4993943;28;20464;-81
2021/07/12 04:41:23;;;;;;;2.50;2.40;;;14.60;99.90;;;;;;4994259;28;20457;-81
2021/07/12 04:43:50;;;;;;;2.67;2.47;;;14.60;99.90;;;;;;4994185;28;20452;-81
2021/07/12 04:46:17;;;;;;;2.60;2.20;;;14.60;99.90;;;;;;4994931;28;20531;-81
2021/07/12 04:48:44;;;;;;;2.67;2.47;;;14.70;99.90;;;;;;4997552;28;20463;-85
2021/07/12 04:51:11;;;;;;;2.50;2.30;;;14.70;99.90;;;;;;4995706;28;20444;-82
2021/07/12 04:53:39;;;;;;;3.17;2.10;;;14.70;99.90;;;;;;4993925;28;20799;-82
2021/07/12 04:56:07;;;;;;;1.90;1.80;;;14.80;99.90;;;;;;4994146;28;20444;-82
2021/07/12 04:58:36;;;;;;;2.70;2.50;;;14.80;99.90;;;;;;4993721;28;20483;-82
2021/07/12 05:01:04;;;;;;;2.93;2.60;;;14.80;99.90;;;;;;4993668;28;20520;-82
2021/07/12 05:03:32;;;;;;;2.90;2.67;;;14.90;99.90;;;;;;4993296;28;20437;-82
2021/07/12 05:05:59;;;;;;;3.20;3.00;;;15.00;99.90;;;;;;4992962;28;20484;-82
2021/07/12 05:08:26;;;;;;;5.17;2.50;;;15.00;99.90;;;;;;4992866;28;21014;-82
2021/07/12 05:10:54;;;;;;;2.83;2.63;;;15.00;99.90;;;;;;4993154;28;20832;-82
2021/07/12 05:13:21;;;;;;;2.90;2.70;;;15.10;99.90;;;;;;4993112;28;20453;-82
2021/07/12 05:15:48;;;;;;;2.90;2.70;;;15.20;99.90;;;;;;4993143;28;20440;-81
2021/07/12 05:18:15;;;;;;;2.90;2.70;;;15.20;99.90;;;;;;4992978;28;20481;-81
2021/07/12 05:20:42;;;;;;;2.57;2.40;;;15.40;99.90;;;;;;4992900;28;20815;-81
2021/07/12 05:23:09;;;;;;;3.80;3.23;;;15.40;99.90;;;;;;4993717;28;20983;-80
2021/07/12 05:25:35;;;;;;;2.83;2.63;;;15.40;99.90;;;;;;4996420;28;20487;-81
2021/07/12 05:28:05;;;;;;;3.50;3.30;;;15.40;99.90;;;;;;4996347;28;20479;-81
2021/07/12 05:30:31;;;;;;;3.47;3.27;;;15.40;99.90;;;;;;4997229;28;20456;-81
2021/07/12 05:32:58;;;;;;;2.70;2.50;;;15.40;99.90;;;;;;4996400;28;20472;-82
2021/07/12 05:35:25;;;;;;;3.90;3.50;;;15.40;99.90;;;;;;4996281;28;20492;-82
2021/07/12 05:37:52;;;;;;;3.07;2.87;;;15.50;99.90;;;;;;4996204;28;20448;-82
2021/07/12 05:40:19;;;;;;;3.00;2.80;;;15.50;99.90;;;;;;4996245;28;20455;-82
2021/07/12 05:42:46;;;;;;;2.90;2.70;;;15.60;99.90;;;;;;4995935;28;20436;-79
2021/07/12 05:45:14;;;;;;;2.97;2.67;;;15.70;99.90;;;;;;4996124;28;20477;-78
2021/07/12 05:47:41;;;;;;;2.93;2.73;;;15.90;99.90;;;;;;4995759;28;20971;-78
2021/07/12 05:50:10;;;;;;;2.90;2.70;;;16.00;99.90;;;;;;4995784;28;20456;-78
2021/07/12 05:52:37;;;;;;;2.30;2.13;;;16.20;99.90;;;;;;4995971;28;20519;-78
2021/07/12 05:55:05;;;;;;;2.50;2.00;;;16.40;99.90;;;;;;4995810;28;20417;-79
2021/07/12 05:57:32;;;;;;;2.17;1.97;;;16.60;99.90;;;;;;4996033;28;20433;-79
2021/07/12 05:59:58;;;;;;;2.23;1.90;;;16.80;99.90;;;;;;4995941;28;20472;-79
2021/07/12 06:03:14;;;;;;;1.67;1.57;;;16.90;99.90;;;;;;5090652;27;20620;-79
2021/07/12 06:05:41;;;;;;;1.40;1.30;;;17.20;99.90;;;;;;5090711;28;20428;-79
2021/07/12 06:08:08;;;;;;;1.37;1.37;;;17.40;99.90;;;;;;5090798;28;20821;-79
2021/07/12 06:10:35;;;;;;;1.77;1.67;;;17.60;99.90;;;;;;5090562;28;20912;-79
2021/07/12 06:13:03;;;;;;;1.80;1.70;;;17.70;99.90;;;;;;5090980;28;20435;-86
2021/07/12 06:15:30;;;;;;;1.93;1.50;;;17.90;99.90;;;;;;5091123;28;20425;-86
2021/07/12 06:17:58;;;;;;;1.50;1.40;;;18.00;99.90;;;;;;5090927;28;20424;-86
2021/07/12 06:20:27;;;;;;;2.20;2.00;;;18.20;99.90;;;;;;5091052;28;20425;-86
2021/07/12 06:22:53;;;;;;;1.53;1.43;;;18.30;99.90;;;;;;5090430;28;20476;-86
2021/07/12 06:25:22;;;;;;;1.70;1.60;;;18.40;99.90;;;;;;5090472;28;20982;-86
2021/07/12 06:27:49;;;;;;;1.90;1.70;;;18.60;99.90;;;;;;5090752;28;20468;-86
2021/07/12 06:30:17;;;;;;;1.90;1.80;;;18.80;99.90;;;;;;5090803;28;20436;-85
2021/07/12 06:32:44;;;;;;;2.20;1.90;;;18.80;99.90;;;;;;5090358;28;20524;-87
2021/07/12 06:35:13;;;;;;;1.50;1.40;;;18.80;99.90;;;;;;5090442;28;20420;-86
2021/07/12 06:37:41;;;;;;;1.67;1.57;;;18.80;99.90;;;;;;5090714;28;20436;-86
2021/07/12 06:40:09;;;;;;;1.63;1.53;;;18.90;99.90;;;;;;5090577;28;20439;-87
2021/07/12 06:42:37;;;;;;;2.93;1.87;;;19.00;99.90;;;;;;5090108;28;20994;-86
2021/07/12 06:45:04;;;;;;;1.87;1.77;;;19.20;99.90;;;;;;5090493;28;20435;-86
2021/07/12 06:47:31;;;;;;;1.70;1.60;;;19.30;99.90;;;;;;5090525;28;20440;-85
2021/07/12 06:49:59;;;;;;;1.50;1.40;;;19.30;99.90;;;;;;5090958;28;20478;-87
2021/07/12 06:52:26;;;;;;;2.37;2.03;;;19.40;99.90;;;;;;5090561;28;20428;-87
2021/07/12 06:54:54;;;;;;;2.13;1.80;;;19.50;99.90;;;;;;5090151;28;20424;-86
2021/07/12 06:57:21;;;;;;;2.40;1.73;;;19.50;99.90;;;;;;5090460;28;20438;-86
2021/07/12 06:59:51;;;;;;;1.67;1.57;;;19.50;99.90;;;;;;5090330;28;20867;-86
2021/07/12 07:02:18;;;;;;;1.87;1.77;;;19.40;99.90;;;;;;5089769;28;20523;-85
2021/07/12 07:04:46;;;;;;;2.07;1.97;;;19.40;99.90;;;;;;5090170;28;20451;-86
2021/07/12 07:07:19;;;;;;;1.70;1.60;;;19.50;99.90;;;;;;5090223;28;20432;-88
2021/07/12 07:09:46;;;;;;;1.80;1.70;;;19.40;99.90;;;;;;5091225;28;21001;-87
2021/07/12 07:12:15;;;;;;;1.70;1.60;;;19.40;99.90;;;;;;5095410;28;20443;-86
2021/07/12 07:14:41;;;;;;;2.00;1.90;;;19.40;99.90;;;;;;5090048;28;20437;-86
2021/07/12 07:17:09;;;;;;;1.80;1.70;;;19.40;99.90;;;;;;5077693;28;20873;-85
2021/07/12 07:19:36;;;;;;;1.87;1.77;;;19.60;99.90;;;;;;5076302;28;20468;-87
2021/07/12 07:22:03;;;;;;;1.60;1.50;;;19.60;99.90;;;;;;5076325;28;20465;-86
2021/07/12 07:24:32;;;;;;;1.80;1.70;;;19.70;99.90;;;;;;5076326;28;20425;-87
2021/07/12 07:27:00;;;;;;;1.63;1.53;;;19.80;99.90;;;;;;5076134;28;20429;-87
2021/07/12 07:29:28;;;;;;;1.67;1.57;;;20.10;99.90;;;;;;5076017;28;20468;-86
2021/07/12 07:31:55;;;;;;;1.67;1.57;;;20.30;99.90;;;;;;5076120;28;20429;-84
2021/07/12 07:34:22;;;;;;;1.40;1.40;;;20.60;99.90;;;;;;5076048;28;20431;-85
2021/07/12 07:36:49;;;;;;;1.40;1.20;;;20.80;99.90;;;;;;5075894;28;20464;-85
2021/07/12 07:39:16;;;;;;;2.17;2.07;;;21.10;99.90;;;;;;5075393;28;20464;-86
2021/07/12 07:41:44;;;;;;;1.33;1.23;;;21.20;99.90;;;;;;5075653;28;20472;-85
2021/07/12 07:44:14;;;;;;;1.60;1.50;;;21.50;99.90;;;;;;5075748;28;20510;-85
2021/07/12 07:46:47;;;;;;;1.67;1.57;;;21.60;99.90;;;;;;5075779;28;20428;-87
2021/07/12 07:49:16;;;;;;;1.53;1.43;;;21.60;99.90;;;;;;5075382;28;20484;-85
2021/07/12 07:51:44;;;;;;;1.30;1.30;;;21.80;99.90;;;;;;5076507;28;20428;-86
2021/07/12 07:54:13;;;;;;;1.43;1.20;;;22.00;99.90;;;;;;5076319;28;20932;-86
2021/07/12 07:56:41;;;;;;;1.17;1.17;;;22.20;99.90;;;;;;5074968;28;20445;-86
2021/07/12 07:59:14;;;;;;;1.30;1.30;;;22.50;99.90;;;;;;5075271;28;20460;-86
2021/07/12 08:02:10;;;;;;;1.67;1.20;;;22.90;99.90;;;;;;5073735;28;20492;-86
2021/07/12 08:04:39;;;;;;;1.97;1.70;;;23.50;99.90;;;;;;5075794;28;20455;-85
2021/07/12 08:13:28;;;;;;;1.52;1.40;;;25.00;99.90;;;;;;5075913;28;20574;-87
2021/07/12 08:15:59;;;;;;;1.77;1.67;;;25.30;99.90;;;;;;5075091;28;20209;-88
2021/07/12 08:18:44;;;;;;;1.33;1.33;;;25.50;99.90;;;;;;5075000;28;20735;-87
2021/07/12 08:21:12;;;;;;;1.63;1.50;;;25.50;99.90;;;;;;5075035;28;20178;-85
2021/07/12 08:23:43;;;;;;;3.38;1.40;;;25.30;99.90;;;;;;5074778;28;20210;-86
2021/07/12 08:26:13;;;;;;;4.22;1.77;;;25.60;99.90;;;;;;5073968;28;20190;-87
2021/07/12 08:29:02;;;;;;;6.55;2.42;;;25.90;99.90;;;;;;5074730;28;20232;-85
2021/07/12 08:32:09;;;;;;;26.08;4.90;;;25.80;99.90;;;;;;5073812;28;20293;-85
2021/07/12 08:35:25;;;;;;;1.40;1.40;;;26.00;99.90;;;;;;5074453;28;20206;-87
2021/07/12 08:38:09;;;;;;;8.00;2.70;;;25.90;99.90;;;;;;5074329;28;20255;-85
2021/07/12 08:40:38;;;;;;;47.22;7.65;;;25.60;99.90;;;;;;5074889;28;20194;-87
2021/07/12 08:43:17;;;;;;;7.75;2.95;;;25.40;99.90;;;;;;5074690;28;20210;-88
2021/07/12 08:45:56;;;;;;;2.80;1.65;;;25.00;99.90;;;;;;5074536;28;20181;-87
2021/07/12 08:48:24;;;;;;;6.53;2.38;;;24.80;99.90;;;;;;5074470;28;20221;-87
2021/07/12 08:50:51;;;;;;;1.25;1.10;;;24.60;99.90;;;;;;5074642;28;20616;-87
2021/07/12 08:56:25;;;;;;;1.30;1.20;;;24.70;99.90;;;;;;5042383;28;20209;-87
2021/07/12 08:58:52;;;;;;;1.30;1.30;;;24.90;99.90;;;;;;5074503;28;20224;-87
2021/07/12 09:01:24;;;;;;;1.88;1.20;;;25.00;99.90;;;;;;5073967;28;20222;-84
2021/07/12 09:03:52;;;;;;;1.60;1.40;;;25.00;99.90;;;;;;5074484;28;20210;-87
2021/07/12 09:06:21;;;;;;;1.02;1.02;;;24.90;99.90;;;;;;5074420;28;20233;-87
2021/07/12 09:09:08;;;;;;;1.10;1.10;;;24.90;99.90;;;;;;5074146;28;20584;-87
2021/07/12 09:11:38;;;;;;;1.50;1.50;;;24.70;99.90;;;;;;5074208;28;20220;-86
2021/07/12 09:14:07;;;;;;;2.92;2.05;;;24.60;99.90;;;;;;5074145;28;20237;-87
2021/07/12 09:16:55;;;;;;;20.58;4.18;;;24.60;99.90;;;;;;5074173;28;20277;-87
2021/07/12 09:20:16;;;;;;;2.50;1.50;;;24.60;99.90;;;;;;5073397;28;20275;-87
2021/07/12 09:22:44;;;;;;;1.60;1.50;;;24.70;99.90;;;;;;5073656;28;20218;-86
2021/07/12 09:25:27;;;;;;;4.00;1.90;;;24.80;99.90;;;;;;5073498;28;20631;-87
2021/07/12 09:28:18;;;;;;;1.10;1.10;;;24.80;99.90;;;;;;5073681;28;20569;-85
2021/07/12 09:30:44;;;;;;;5.40;1.95;;;25.00;99.90;;;;;;5073596;28;20202;-86
2021/07/12 09:36:51;;;;;;;1.55;1.40;;;25.20;99.90;;;;;;5073032;28;20204;-85
2021/07/12 09:39:56;;;;;;;1.42;1.38;;;25.50;99.90;;;;;;5072551;28;20689;-84
2021/07/12 09:42:41;;;;;;;19.15;3.95;;;25.50;99.90;;;;;;5041786;28;20594;-87
2021/07/12 09:45:44;;;;;;;1.98;1.20;;;25.60;99.90;;;;;;5073888;28;20196;-84
2021/07/12 09:48:55;;;;;;;4.75;1.65;;;25.70;99.90;;;;;;5087081;28;20206;-83
2021/07/12 09:51:33;;;;;;;14.70;2.20;;;25.70;99.90;;;;;;5082529;28;20187;-87
2021/07/12 09:57:25;;;;;;;9.10;2.28;;;25.80;99.90;;;;;;5069539;28;20267;-86
2021/07/12 10:00:32;;;;;;;2.75;2.13;;;25.70;99.90;;;;;;5073007;28;20222;-84
2021/07/12 10:03:02;;;;;;;1.70;1.42;;;25.90;99.90;;;;;;5073015;28;20234;-86
2021/07/12 10:05:29;;;;;;;1.83;1.73;;;26.00;99.90;;;;;;5073093;28;20182;-86
2021/07/12 10:07:56;;;;;;;1.55;1.45;;;26.00;99.90;;;;;;5072834;28;20673;-85
2021/07/12 10:10:27;;;;;;;1.20;1.20;;;25.90;99.90;;;;;;5073111;28;20183;-91
2021/07/12 10:12:55;;;;;;;1.20;1.10;;;26.00;99.90;;;;;;5073428;28;20622;-86
2021/07/12 10:15:22;;;;;;;2.20;2.10;;;26.00;99.90;;;;;;5073104;28;20614;-85
2021/07/12 10:17:49;;;;;;;1.77;1.67;;;26.00;99.90;;;;;;5073432;28;20641;-86
2021/07/12 10:20:18;;;;;;;2.20;1.40;;;25.90;99.90;;;;;;5073294;28;20183;-86
2021/07/12 10:22:46;;;;;;;1.55;1.45;;;25.70;99.90;;;;;;5073444;28;20203;-86
2021/07/12 10:25:16;;;;;;;1.70;1.40;;;25.60;99.90;;;;;;5073095;28;20228;-85
2021/07/12 10:27:50;;;;;;;1.25;1.25;;;25.30;99.90;;;;;;5073465;28;20550;-87
2021/07/12 10:30:29;;;;;;;1.40;1.40;;;25.30;99.90;;;;;;5072923;28;20660;-86
2021/07/12 10:32:58;;;;;;;1.77;1.50;;;25.20;99.90;;;;;;5073212;28;20182;-85
2021/07/12 10:35:44;;;;;;;1.77;1.67;;;25.20;99.90;;;;;;5073058;28;20270;-83
2021/07/12 10:38:14;;;;;;;1.40;1.30;;;25.20;99.90;;;;;;5073510;28;20229;-87
2021/07/12 10:40:51;;;;;;;1.45;1.35;;;25.20;99.90;;;;;;5073375;28;20198;-86
2021/07/12 10:43:34;;;;;;;0.93;0.93;;;25.10;99.90;;;;;;5072868;28;20221;-86
2021/07/12 10:46:02;;;;;;;1.60;1.50;;;25.20;99.90;;;;;;5073084;28;20178;-86
2021/07/12 10:48:34;;;;;;;1.10;1.10;;;25.10;99.90;;;;;;5073911;28;20229;-84
2021/07/12 10:51:16;;;;;;;1.30;1.30;;;25.20;99.90;;;;;;5076661;28;20219;-85
2021/07/12 10:53:43;;;;;;;1.50;1.40;;;25.10;99.90;;;;;;5076582;28;20553;-85
2021/07/12 10:56:16;;;;;;;1.20;1.15;;;25.00;99.90;;;;;;5076719;28;20200;-85
2021/07/12 10:58:50;;;;;;;1.27;1.10;;;25.10;99.90;;;;;;5076572;28;20241;-85
2021/07/12 11:01:35;;;;;;;1.50;1.40;;;25.00;99.90;;;;;;5076501;28;20229;-85
2021/07/12 11:04:02;;;;;;;1.15;1.15;;;24.90;99.90;;;;;;5076490;28;20629;-85
2021/07/12 11:06:56;;;;;;;1.63;1.20;;;24.90;99.90;;;;;;5076290;28;20665;-85
2021/07/12 11:10:04;;;;;;;1.30;1.20;;;24.90;99.90;;;;;;5076452;28;20218;-83
2021/07/12 11:12:45;;;;;;;1.00;1.00;;;25.20;99.90;;;;;;5076617;28;20186;-85
2021/07/12 11:15:20;;;;;;;1.38;1.27;;;25.40;99.90;;;;;;5076526;28;20190;-86
2021/07/12 11:17:57;;;;;;;1.60;1.50;;;25.50;99.50;;;;;;5077400;28;20190;-86
2021/07/12 11:20:44;;;;;;;1.20;1.10;;;25.60;99.90;;;;;;5076497;28;20625;-87
2021/07/12 11:23:46;;;;;;;1.15;1.05;;;25.60;99.90;;;;;;5076608;28;20692;-89
2021/07/12 11:26:50;;;;;;;1.20;1.20;;;25.70;99.90;;;;;;5076833;28;20197;-86
2021/07/12 11:29:32;;;;;;;2.25;1.35;;;25.70;99.90;;;;;;5076325;28;20217;-86
2021/07/12 11:32:16;;;;;;;2.40;1.27;;;25.80;99.90;;;;;;5076241;28;20202;-87
2021/07/12 11:34:56;;;;;;;1.85;1.00;;;26.00;99.60;;;;;;5075939;28;20179;-85
2021/07/12 11:48:18;;;;;;;1.27;1.17;;;25.60;99.60;;;;;;5028344;28;20207;-88
2021/07/12 12:19:27;;;;;;;1.10;1.10;;;25.60;98.70;;;;;;5079144;28;20703;-86
2021/07/12 12:22:58;;;;;;;;;;;;;;;;;;;;;
2021/07/12 12:26:27;;;;;;;1.50;1.40;;;25.70;96.80;;;;;;4993348;28;20200;-87
2021/07/12 12:35:59;;;;;;;2.30;1.30;;;25.50;98.70;;;;;;4916475;29;20190;-85
2021/07/12 12:46:07;;;;;;;1.48;1.38;;;25.20;97.50;;;;;;5012592;28;20243;-87
2021/07/12 12:52:33;;;;;;;1.40;1.27;;;25.20;98.70;;;;;;4999604;28;20536;-87
2021/07/12 12:55:12;;;;;;;2.05;1.50;;;25.20;99.70;;;;;;4973478;28;20209;-87
2021/07/12 12:58:35;;;;;;;1.92;1.33;;;25.30;98.50;;;;;;5013563;28;20208;-86
2021/07/12 13:01:09;;;;;;;1.52;1.42;;;25.50;98.60;;;;;;4921905;29;20210;-87
2021/07/12 13:03:46;;;;;;;1.45;1.10;;;25.50;98.30;;;;;;5014553;28;20282;-87
2021/07/12 13:06:14;;;;;;;1.42;1.40;;;25.40;99.60;;;;;;5014647;28;20204;-82
2021/07/12 13:08:59;;;;;;;1.35;1.35;;;25.50;99.30;;;;;;5013252;28;20227;-81
2021/07/12 13:11:28;;;;;;;2.88;1.77;;;25.60;97.80;;;;;;5013467;28;20193;-81
2021/07/12 13:24:11;;;;;;;1.50;1.50;;;25.80;97.50;;;;;;4994667;28;20690;-85
2021/07/12 13:27:02;;;;;;;1.33;1.33;;;25.60;97.80;;;;;;4994625;28;20654;-87
2021/07/12 13:29:54;;;;;;;1.40;1.30;;;25.60;98.30;;;;;;5357865;23;20240;-85
2021/07/12 13:49:49;;;;;;;1.63;1.52;;;25.60;97.20;;;;;;4994626;28;20203;-89
2021/07/12 14:19:32;;;;;;;1.67;1.58;;;25.70;96.00;;;;;;4751154;30;20263;-89
2021/07/12 14:28:37;;;;;;;1.42;1.42;;;25.40;96.30;;;;;;4729091;30;20271;-90
2021/07/12 14:31:04;;;;;;;1.75;1.65;;;25.30;96.80;;;;;;4791482;29;20287;-91
2021/07/12 14:33:31;;;;;;;1.38;1.38;;;25.10;96.90;;;;;;4911960;29;20203;-90
2021/07/12 14:35:59;;;;;;;1.88;1.60;;;25.10;96.10;;;;;;4961663;28;20574;-91
2021/07/12 14:38:26;;;;;;;2.00;1.88;;;25.10;96.10;;;;;;4998714;28;20225;-91
2021/07/12 14:40:53;;;;;;;1.45;1.33;;;25.00;96.90;;;;;;4998351;28;20209;-90
2021/07/12 14:43:20;;;;;;;2.50;1.70;;;24.90;97.30;;;;;;4998906;28;20228;-91
2021/07/12 14:45:47;;;;;;;10.27;1.80;;;24.90;97.70;;;;;;4998675;28;20544;-91
2021/07/12 14:48:14;;;;;;;1.20;1.20;;;24.90;98.10;;;;;;4998538;28;20645;-90
2021/07/12 14:50:41;;;;;;;1.77;1.38;;;25.00;97.80;;;;;;4998377;28;20211;-90
2021/07/12 14:53:10;;;;;;;1.48;1.35;;;25.10;98.90;;;;;;4998302;28;20216;-89
2021/07/12 14:55:41;;;;;;;1.55;1.45;;;25.20;97.50;;;;;;4997862;28;20211;-90
2021/07/12 14:58:08;;;;;;;1.55;1.40;;;25.30;96.90;;;;;;4997633;28;20778;-91
2021/07/12 15:00:36;;;;;;;1.67;1.58;;;25.30;96.70;;;;;;4997808;28;20668;-90
2021/07/12 15:03:03;;;;;;;1.60;1.60;;;25.20;97.50;;;;;;4997626;28;20211;-90
2021/07/12 15:05:30;;;;;;;2.85;1.60;;;25.30;96.90;;;;;;4997498;28;20229;-89
2021/07/12 15:07:57;;;;;;;1.80;1.70;;;25.50;96.70;;;;;;4997738;28;20209;-91
2021/07/12 15:10:29;;;;;;;1.52;1.42;;;25.40;97.20;;;;;;4998153;28;20204;-89
2021/07/12 15:13:00;;;;;;;2.03;1.92;;;25.30;97.70;;;;;;4997201;28;20189;-88
2021/07/12 15:15:27;;;;;;;2.45;2.13;;;25.40;97.30;;;;;;4998240;28;20201;-89
2021/07/12 16:17:18;;;;;;;9.30;8.23;;;25.30;99.90;;;;;;4831937;29;20214;-88
2021/07/12 16:47:13;;;;;;;2.78;2.58;;;25.40;99.90;;;;;;4730276;30;20641;-83
2021/07/12 16:57:21;;;;;;;2.55;2.10;;;25.20;99.90;;;;;;4734331;30;20216;-88
2021/07/12 17:17:06;;;;;;;2.55;2.45;;;25.40;99.90;;;;;;4631848;30;20578;-89
2021/07/12 17:20:05;;;;;;;2.33;2.22;;;25.40;99.90;;;;;;4721511;30;20734;-87
2021/07/12 17:22:48;;;;;;;2.15;2.10;;;25.30;99.90;;;;;;4749164;30;20217;-88